Time;durP1;ratioP1;P1;durP2;ratioP2;P2;SDS_P1;SDS_P2;PMS_P1;PMS_P2;Temp;Humidity;BMP_temperature;BMP_pressure;BME280_temperature;BME280_humidity;BME280_pressure;Samples;Min_cycle;Max_cycle;Signal;HPM_P1;HPM_P2
2022/02/28 00:02:11;;;;;;;9.40;6.83;;;;;;;3.06;57.63;101811.34;5053621;28;20409;-77
2022/02/28 00:04:37;;;;;;;6.85;6.00;;;;;;;3.06;57.04;101814.00;5053921;28;20397;-78
2022/02/28 00:07:02;;;;;;;8.70;6.40;;;;;;;3.07;57.36;101810.31;5048435;28;20502;-78
2022/02/28 00:09:27;;;;;;;8.80;6.43;;;;;;;3.07;57.65;101819.19;5055203;28;20417;-77
2022/02/28 00:11:53;;;;;;;9.00;6.13;;;;;;;3.00;57.29;101820.00;5053191;28;20405;-77
2022/02/28 00:14:18;;;;;;;8.20;6.50;;;;;;;2.96;57.37;101819.50;5052084;28;20413;-77
2022/02/28 00:16:43;;;;;;;9.53;6.50;;;;;;;3.00;58.09;101822.69;5048829;28;20442;-77
2022/02/28 00:19:09;;;;;;;8.57;6.70;;;;;;;2.97;57.82;101820.31;5048592;28;20885;-77
2022/02/28 00:21:34;;;;;;;7.80;6.50;;;;;;;2.96;58.12;101816.84;5050608;28;20416;-77
2022/02/28 00:24:00;;;;;;;10.47;6.47;;;;;;;2.94;57.77;101813.47;5052030;28;20853;-77
2022/02/28 00:26:25;;;;;;;8.27;6.70;;;;;;;2.96;57.49;101821.34;5050931;28;20425;-77
2022/02/28 00:28:51;;;;;;;8.17;6.00;;;;;;;2.97;57.72;101806.94;5053459;28;20401;-77
2022/02/28 00:31:18;;;;;;;10.03;6.63;;;;;;;2.96;57.83;101810.63;5052195;28;20772;-77
2022/02/28 00:33:43;;;;;;;8.07;6.82;;;;;;;2.97;58.56;101809.63;5052972;28;20402;-77
2022/02/28 00:36:08;;;;;;;11.03;6.40;;;;;;;2.96;58.57;101807.97;5076595;28;20414;-77
2022/02/28 00:38:34;;;;;;;9.18;6.95;;;;;;;2.90;57.85;101803.22;5050061;28;20437;-77
2022/02/28 00:40:59;;;;;;;10.73;7.53;;;;;;;2.84;58.11;101803.88;5053111;28;20402;-77
2022/02/28 00:43:25;;;;;;;7.93;6.60;;;;;;;2.79;57.69;101803.53;5052994;28;20413;-77
2022/02/28 00:45:51;;;;;;;7.88;6.57;;;;;;;2.73;57.61;101791.66;5051731;28;20844;-77
2022/02/28 00:48:17;;;;;;;8.60;6.43;;;;;;;2.77;57.45;101792.13;5052896;28;20781;-77
2022/02/28 00:50:42;;;;;;;11.63;6.82;;;;;;;2.71;57.42;101793.63;5051491;28;20444;-77
2022/02/28 00:53:07;;;;;;;10.27;7.13;;;;;;;2.73;57.61;101788.97;5052832;28;20484;-77
2022/02/28 00:55:33;;;;;;;8.57;6.80;;;;;;;2.74;57.53;101784.44;5052763;28;20398;-77
2022/02/28 00:57:58;;;;;;;11.43;7.40;;;;;;;2.75;57.04;101776.25;5049199;28;20765;-77
2022/02/28 01:00:24;;;;;;;9.33;7.13;;;;;;;2.71;56.90;101774.06;5051349;28;20757;-76
2022/02/28 01:02:49;;;;;;;9.60;6.57;;;;;;;2.74;57.14;101779.06;5052705;28;20413;-78
2022/02/28 01:05:17;;;;;;;9.40;6.60;;;;;;;2.71;56.85;101785.59;5048864;28;20401;-78
2022/02/28 01:07:42;;;;;;;9.07;6.50;;;;;;;2.68;57.44;101785.94;5050699;28;20409;-78
2022/02/28 01:10:11;;;;;;;8.47;6.23;;;;;;;2.65;57.34;101786.25;5067648;28;20405;-77
2022/02/28 01:12:37;;;;;;;10.77;6.70;;;;;;;2.66;57.51;101795.97;5052564;28;20402;-77
2022/02/28 01:15:05;;;;;;;9.33;7.10;;;;;;;2.76;57.66;101796.69;5067529;28;20406;-77
2022/02/28 01:17:30;;;;;;;11.02;7.43;;;;;;;2.79;58.27;101798.19;5052404;28;20409;-77
2022/02/28 01:19:56;;;;;;;9.43;6.88;;;;;;;2.79;58.22;101793.69;5066283;28;20757;-77
2022/02/28 01:22:21;;;;;;;11.00;6.90;;;;;;;2.77;57.78;101801.00;5050787;28;20518;-77
2022/02/28 01:24:46;;;;;;;10.13;6.60;;;;;;;2.72;59.15;101798.00;5052329;28;20477;-77
2022/02/28 01:27:12;;;;;;;8.70;6.23;;;;;;;2.67;59.26;101802.16;5052183;28;20408;-77
2022/02/28 01:29:37;;;;;;;10.18;7.70;;;;;;;2.58;60.11;101801.28;5052019;28;20401;-77
2022/02/28 01:32:02;;;;;;;9.53;6.47;;;;;;;2.52;59.93;101801.91;5052054;28;20401;-77
2022/02/28 01:34:28;;;;;;;7.97;6.57;;;;;;;2.45;60.44;101792.84;5043007;28;20418;-77
2022/02/28 01:36:53;;;;;;;8.27;6.20;;;;;;;2.41;61.39;101797.66;5043684;28;20397;-77
2022/02/28 01:39:18;;;;;;;7.72;6.20;;;;;;;2.37;61.42;101793.63;5052314;28;20447;-77
2022/02/28 01:41:44;;;;;;;11.43;6.90;;;;;;;2.34;62.12;101788.59;5052112;28;20745;-77
2022/02/28 01:44:10;;;;;;;8.43;7.00;;;;;;;2.35;62.18;101792.97;5052103;28;20872;-77
2022/02/28 01:46:38;;;;;;;10.60;6.97;;;;;;;2.32;61.82;101789.75;5051807;28;20651;-77
2022/02/28 01:49:03;;;;;;;8.55;6.95;;;;;;;2.29;62.07;101793.59;5046870;28;20413;-77
2022/02/28 01:51:29;;;;;;;8.57;6.63;;;;;;;2.21;62.58;101800.72;5051824;28;20466;-77
2022/02/28 01:53:54;;;;;;;10.55;6.28;;;;;;;2.20;62.88;101802.59;5051522;28;20398;-77
2022/02/28 01:56:21;;;;;;;6.97;6.23;;;;;;;2.22;62.97;101797.91;5066836;28;20408;-77
2022/02/28 01:58:46;;;;;;;9.57;6.55;;;;;;;2.17;63.06;101800.22;5051658;28;20409;-77
2022/02/28 02:01:12;;;;;;;7.53;6.63;;;;;;;2.18;63.50;101801.03;5051359;28;20402;-77
2022/02/28 02:03:38;;;;;;;8.47;6.13;;;;;;;2.21;63.26;101806.06;5044309;28;20504;-77
2022/02/28 02:06:09;;;;;;;8.63;6.70;;;;;;;2.24;63.14;101798.56;5078264;28;20405;-78
2022/02/28 02:08:35;;;;;;;11.60;7.00;;;;;;;2.23;62.65;101802.28;5051530;28;20452;-77
2022/02/28 02:11:02;;;;;;;10.20;6.90;;;;;;;2.19;62.71;101794.72;5051414;28;20912;-78
2022/02/28 02:13:30;;;;;;;11.73;6.47;;;;;;;2.19;63.18;101803.56;5051720;28;20464;-77
2022/02/28 02:15:56;;;;;;;7.88;6.57;;;;;;;2.17;62.77;101804.72;5051412;28;20409;-77
2022/02/28 02:18:21;;;;;;;8.93;6.97;;;;;;;2.12;62.46;101801.69;5049681;28;20585;-77
2022/02/28 02:20:46;;;;;;;12.07;7.87;;;;;;;2.09;63.03;101798.34;5051466;28;20829;-77
2022/02/28 02:23:13;;;;;;;9.77;6.93;;;;;;;2.13;62.79;101800.69;5051267;28;20471;-78
2022/02/28 02:25:40;;;;;;;9.07;7.20;;;;;;;2.17;63.55;101794.03;5051419;28;20844;-78
2022/02/28 02:28:06;;;;;;;9.38;7.15;;;;;;;2.15;63.33;101793.34;5051354;28;20864;-77
2022/02/28 02:30:33;;;;;;;7.45;6.50;;;;;;;2.09;62.97;101795.66;5066627;28;20440;-77
2022/02/28 02:32:58;;;;;;;14.27;7.85;;;;;;;2.12;62.44;101802.53;5041165;28;20428;-77
2022/02/28 02:35:24;;;;;;;9.83;6.60;;;;;;;2.09;62.36;101803.69;5048272;28;20884;-77
2022/02/28 02:37:49;;;;;;;10.03;7.47;;;;;;;2.08;62.73;101799.31;5044299;28;20402;-77
2022/02/28 02:40:15;;;;;;;9.48;6.72;;;;;;;2.08;62.90;101795.81;5051135;28;20403;-77
2022/02/28 02:42:40;;;;;;;11.45;7.38;;;;;;;2.09;62.39;101794.81;5051007;28;20428;-77
2022/02/28 02:45:06;;;;;;;11.52;8.10;;;;;;;2.02;62.50;101793.75;5051285;28;20464;-77
2022/02/28 02:47:31;;;;;;;9.23;7.50;;;;;;;1.91;63.15;101788.69;5051007;28;20397;-77
2022/02/28 02:49:57;;;;;;;8.10;7.20;;;;;;;1.81;63.26;101780.75;5049690;28;20390;-77
2022/02/28 02:52:22;;;;;;;9.88;7.65;;;;;;;1.81;62.77;101790.63;5049038;28;20416;-77
2022/02/28 02:54:48;;;;;;;10.80;7.82;;;;;;;1.83;62.76;101783.28;5050865;28;20393;-77
2022/02/28 02:57:13;;;;;;;8.77;7.13;;;;;;;1.80;62.46;101780.91;5050985;28;20401;-77
2022/02/28 02:59:39;;;;;;;12.03;7.57;;;;;;;1.77;62.54;101778.56;5051117;28;20737;-77
2022/02/28 03:02:04;;;;;;;11.90;8.07;;;;;;;1.77;62.74;101776.72;5050821;28;20484;-77
2022/02/28 03:04:29;;;;;;;9.48;7.53;;;;;;;1.75;63.02;101772.50;5050910;28;20416;-78
2022/02/28 03:06:55;;;;;;;10.63;7.10;;;;;;;1.74;62.67;101781.53;5049406;28;20409;-77
2022/02/28 03:09:20;;;;;;;8.70;7.40;;;;;;;1.73;63.15;101783.38;5050549;28;20416;-77
2022/02/28 03:11:46;;;;;;;10.80;7.50;;;;;;;1.74;63.06;101782.38;5066424;28;20402;-77
2022/02/28 03:14:12;;;;;;;11.37;7.80;;;;;;;1.72;63.44;101788.84;5050654;28;20808;-77
2022/02/28 03:16:37;;;;;;;11.15;8.57;;;;;;;1.72;63.11;101779.00;5049402;28;20982;-77
2022/02/28 03:19:04;;;;;;;11.07;7.97;;;;;;;1.71;63.25;101780.03;5050774;28;20402;-77
2022/02/28 03:21:29;;;;;;;10.55;7.10;;;;;;;1.78;63.49;101778.38;5049455;28;20409;-77
2022/02/28 03:23:55;;;;;;;10.38;7.25;;;;;;;1.87;63.36;101781.97;5075462;28;20424;-77
2022/02/28 03:26:20;;;;;;;8.90;7.68;;;;;;;1.89;63.57;101780.81;5045867;28;20792;-77
2022/02/28 03:28:45;;;;;;;11.80;8.20;;;;;;;1.87;64.21;101784.66;5049429;28;20788;-77
2022/02/28 03:31:11;;;;;;;9.23;8.10;;;;;;;1.82;63.78;101779.75;5050706;28;20401;-77
2022/02/28 03:33:36;;;;;;;12.03;7.80;;;;;;;1.82;64.18;101786.94;5050569;28;20400;-78
2022/02/28 03:36:02;;;;;;;8.65;7.47;;;;;;;1.78;64.25;101775.72;5050642;28;20401;-77
2022/02/28 03:38:27;;;;;;;9.90;7.97;;;;;;;1.76;64.15;101788.41;5036645;28;20487;-77
2022/02/28 03:40:52;;;;;;;8.93;7.37;;;;;;;1.76;64.66;101787.56;5042805;28;20445;-78
2022/02/28 03:43:18;;;;;;;10.60;7.50;;;;;;;1.75;64.42;101788.53;5061246;28;20941;-77
2022/02/28 03:45:43;;;;;;;11.82;7.88;;;;;;;1.68;64.17;101779.50;5056609;28;20398;-77
2022/02/28 03:48:09;;;;;;;8.73;7.47;;;;;;;1.72;64.42;101778.16;5051983;28;21004;-77
2022/02/28 03:50:35;;;;;;;11.80;8.60;;;;;;;1.71;64.12;101782.69;5053905;28;20432;-77
2022/02/28 03:53:01;;;;;;;9.82;7.68;;;;;;;1.64;64.75;101773.63;5083682;28;20912;-77
2022/02/28 03:55:27;;;;;;;9.18;7.72;;;;;;;1.47;64.98;101777.13;5050170;28;20405;-77
2022/02/28 03:57:52;;;;;;;10.75;7.55;;;;;;;1.27;65.71;101781.81;5051441;28;20405;-77
2022/02/28 04:00:18;;;;;;;10.00;7.97;;;;;;;1.24;65.81;101771.44;5054266;28;20404;-77
2022/02/28 04:02:43;;;;;;;12.60;8.53;;;;;;;1.32;66.33;101776.81;5053701;28;20877;-78
2022/02/28 04:05:09;;;;;;;12.67;8.80;;;;;;;1.38;66.11;101775.41;5053524;28;20508;-78
2022/02/28 04:07:34;;;;;;;10.93;8.13;;;;;;;1.31;65.59;101777.00;5046425;28;20436;-77
2022/02/28 04:10:00;;;;;;;11.77;8.83;;;;;;;1.30;66.30;101778.81;5053694;28;20840;-78
2022/02/28 04:12:25;;;;;;;12.13;8.37;;;;;;;1.28;66.44;101778.16;5051301;28;20405;-77
2022/02/28 04:14:51;;;;;;;10.60;8.53;;;;;;;1.30;66.07;101780.66;5053395;28;20779;-77
2022/02/28 04:17:17;;;;;;;12.07;8.33;;;;;;;1.27;65.96;101776.47;5053468;28;20409;-78
2022/02/28 04:19:43;;;;;;;13.73;9.40;;;;;;;1.29;65.79;101774.47;5053464;28;20462;-77
2022/02/28 04:22:08;;;;;;;11.50;9.38;;;;;;;1.34;65.46;101776.69;5048563;28;20409;-78
2022/02/28 04:24:34;;;;;;;12.57;8.73;;;;;;;1.41;65.57;101770.59;5052226;28;20471;-78
2022/02/28 04:26:59;;;;;;;11.17;8.37;;;;;;;1.43;65.51;101767.75;5053300;28;20479;-77
2022/02/28 04:29:25;;;;;;;12.37;8.97;;;;;;;1.31;65.85;101771.66;5053304;28;20412;-78
2022/02/28 04:31:50;;;;;;;11.75;9.13;;;;;;;1.17;66.03;101765.00;5053623;28;20436;-77
2022/02/28 04:34:15;;;;;;;12.27;9.27;;;;;;;1.11;66.17;101765.63;5051769;28;20401;-77
2022/02/28 04:36:42;;;;;;;12.00;9.40;;;;;;;1.03;66.04;101761.03;5049641;28;20410;-77
2022/02/28 04:39:08;;;;;;;9.63;8.43;;;;;;;1.01;66.13;101760.34;5053175;28;20447;-77
2022/02/28 04:41:33;;;;;;;11.25;9.32;;;;;;;1.00;65.80;101763.16;5053001;28;20738;-77
2022/02/28 04:43:59;;;;;;;11.20;8.47;;;;;;;1.06;65.71;101759.88;5053018;28;20423;-77
2022/02/28 04:46:24;;;;;;;10.45;8.63;;;;;;;1.03;65.84;101762.84;5052939;28;20967;-77
2022/02/28 04:48:50;;;;;;;10.27;8.87;;;;;;;1.03;65.98;101754.84;5048785;28;20411;-77
2022/02/28 04:51:15;;;;;;;11.45;9.27;;;;;;;1.01;65.94;101760.34;5053024;28;20488;-77
2022/02/28 04:53:41;;;;;;;13.00;9.30;;;;;;;1.02;66.20;101762.00;5051582;28;20899;-78
2022/02/28 04:56:06;;;;;;;16.00;9.70;;;;;;;1.00;65.86;101766.69;5053121;28;20394;-77
2022/02/28 04:58:31;;;;;;;13.17;9.63;;;;;;;0.95;66.40;101758.31;5057168;28;20414;-78
2022/02/28 05:00:57;;;;;;;13.83;9.00;;;;;;;0.95;66.01;101760.97;5052734;28;20406;-77
2022/02/28 05:03:22;;;;;;;14.13;9.13;;;;;;;0.88;66.13;101762.56;5067885;28;20417;-77
2022/02/28 05:05:48;;;;;;;12.27;9.60;;;;;;;0.89;66.24;101761.53;5051659;28;20408;-77
2022/02/28 05:08:13;;;;;;;13.73;9.43;;;;;;;0.81;66.36;101758.81;5051288;28;20784;-78
2022/02/28 05:10:39;;;;;;;13.52;9.70;;;;;;;0.82;65.64;101763.16;5052175;28;20412;-77
2022/02/28 05:13:04;;;;;;;16.03;10.37;;;;;;;0.79;66.10;101759.94;5051348;28;20401;-78
2022/02/28 05:15:29;;;;;;;11.47;8.50;;;;;;;0.74;66.07;101759.53;5048371;28;20481;-77
2022/02/28 05:17:55;;;;;;;13.23;8.90;;;;;;;0.75;66.39;101759.41;5053283;28;20412;-78
2022/02/28 05:20:20;;;;;;;10.65;8.38;;;;;;;0.72;66.49;101764.19;5063822;28;20432;-76
2022/02/28 05:22:46;;;;;;;14.10;9.13;;;;;;;0.70;66.37;101759.00;5062762;28;20427;-77
2022/02/28 05:25:11;;;;;;;13.27;9.47;;;;;;;0.77;66.54;101762.75;5046207;28;20947;-78
2022/02/28 05:27:40;;;;;;;13.03;9.23;;;;;;;0.81;66.06;101765.97;5046431;28;20478;-77
2022/02/28 05:30:07;;;;;;;15.05;10.15;;;;;;;0.82;65.69;101756.97;5055620;28;20398;-78
2022/02/28 05:32:33;;;;;;;13.38;10.27;;;;;;;0.80;66.13;101761.59;5048674;28;20410;-77
2022/02/28 05:34:59;;;;;;;13.43;9.65;;;;;;;0.82;66.25;101756.97;5053899;28;20924;-77
2022/02/28 05:37:24;;;;;;;13.65;9.18;;;;;;;0.81;65.66;101758.81;5060959;28;20413;-77
2022/02/28 05:39:50;;;;;;;13.87;8.80;;;;;;;0.81;66.02;101768.63;5060720;28;20500;-77
2022/02/28 05:42:15;;;;;;;13.17;9.53;;;;;;;0.82;66.31;101764.97;5056795;28;20913;-77
2022/02/28 05:44:40;;;;;;;13.50;9.40;;;;;;;0.77;65.94;101769.91;5062965;28;20434;-77
2022/02/28 05:47:06;;;;;;;13.33;9.77;;;;;;;0.79;66.72;101765.28;5067868;28;20397;-77
2022/02/28 05:49:31;;;;;;;13.60;10.15;;;;;;;0.78;65.94;101772.44;5063809;28;20397;-77
2022/02/28 05:51:57;;;;;;;15.60;10.27;;;;;;;0.75;66.35;101763.91;5066220;28;20797;-77
2022/02/28 05:54:22;;;;;;;16.13;10.20;;;;;;;0.74;66.78;101762.22;5059579;28;20413;-77
2022/02/28 05:56:47;;;;;;;15.10;9.87;;;;;;;0.68;66.90;101773.47;5044426;28;20407;-77
2022/02/28 05:59:12;;;;;;;14.23;10.23;;;;;;;0.62;66.85;101771.41;5075156;28;20440;-77
2022/02/28 06:01:41;;;;;;;14.93;10.57;;;;;;;0.66;66.65;101770.94;5049466;28;20393;-77
2022/02/28 06:04:06;;;;;;;13.70;10.18;;;;;;;0.73;66.53;101776.53;5047467;28;20425;-77
2022/02/28 06:06:32;;;;;;;14.97;10.40;;;;;;;0.78;66.20;101780.44;5042063;28;20395;-79
2022/02/28 06:08:57;;;;;;;15.47;9.87;;;;;;;0.80;66.46;101778.47;5047372;28;20433;-77
2022/02/28 06:11:23;;;;;;;15.20;10.20;;;;;;;0.83;66.67;101783.50;5046799;28;20444;-78
2022/02/28 06:13:48;;;;;;;13.90;10.30;;;;;;;0.91;66.75;101780.94;5051001;28;20452;-77
2022/02/28 06:16:14;;;;;;;14.47;11.20;;;;;;;0.93;66.31;101783.44;5050376;28;20416;-78
2022/02/28 06:18:39;;;;;;;16.40;11.02;;;;;;;0.94;66.49;101783.31;5046768;28;20760;-79
2022/02/28 06:21:07;;;;;;;18.03;11.53;;;;;;;0.89;66.76;101782.09;5049972;28;20958;-77
2022/02/28 06:23:32;;;;;;;21.40;11.30;;;;;;;0.76;66.82;101779.75;5039415;28;20471;-77
2022/02/28 06:25:58;;;;;;;15.17;11.03;;;;;;;0.71;66.67;101789.19;5045147;28;20795;-81
2022/02/28 06:28:25;;;;;;;16.40;10.32;;;;;;;0.67;66.74;101779.81;5044212;28;20405;-78
2022/02/28 06:30:51;;;;;;;14.57;10.02;;;;;;;0.66;66.93;101778.94;5043795;28;20413;-77
2022/02/28 06:33:16;;;;;;;14.10;10.63;;;;;;;0.61;66.87;101786.56;5045256;28;20412;-76
2022/02/28 06:35:44;;;;;;;14.10;10.80;;;;;;;0.73;66.68;101785.38;5044569;28;20404;-78
2022/02/28 06:38:11;;;;;;;12.68;10.07;;;;;;;0.89;66.31;101780.22;5082298;28;20758;-77
2022/02/28 06:40:38;;;;;;;15.93;10.27;;;;;;;0.98;65.96;101787.34;5050002;28;20496;-77
2022/02/28 06:43:03;;;;;;;14.75;10.13;;;;;;;1.07;66.23;101790.09;5046333;28;20432;-77
2022/02/28 06:45:29;;;;;;;15.97;10.53;;;;;;;1.13;66.41;101801.00;5047973;28;20889;-77
2022/02/28 06:47:54;;;;;;;18.03;12.03;;;;;;;1.12;66.31;101801.19;5064695;28;20401;-76
2022/02/28 06:50:21;;;;;;;15.07;12.00;;;;;;;1.12;66.36;101806.50;5045914;28;20404;-77
2022/02/28 06:52:46;;;;;;;16.83;10.75;;;;;;;1.10;66.24;101812.00;5046692;28;20509;-77
2022/02/28 06:55:12;;;;;;;14.07;10.77;;;;;;;1.06;65.64;101805.28;5047096;28;20433;-77
2022/02/28 06:57:37;;;;;;;16.73;10.60;;;;;;;1.03;65.59;101810.91;5047493;28;20897;-77
2022/02/28 07:00:03;;;;;;;13.57;10.63;;;;;;;1.03;66.12;101809.09;5043882;28;20442;-77
2022/02/28 07:02:28;;;;;;;16.80;11.68;;;;;;;1.04;65.76;101810.78;5045773;28;20413;-78
2022/02/28 07:04:53;;;;;;;15.00;10.18;;;;;;;1.09;65.71;101809.50;5046972;28;20446;-77
2022/02/28 07:07:19;;;;;;;16.50;10.73;;;;;;;1.16;65.34;101811.38;5045355;28;20397;-77
2022/02/28 07:09:46;;;;;;;14.80;10.50;;;;;;;1.27;65.31;101810.34;5042004;28;20821;-77
2022/02/28 07:12:12;;;;;;;14.10;10.82;;;;;;;1.29;64.82;101814.53;5040257;28;20487;-79
2022/02/28 07:14:38;;;;;;;15.60;11.25;;;;;;;1.33;64.82;101821.25;5041689;28;20960;-79
2022/02/28 07:17:04;;;;;;;13.60;10.15;;;;;;;1.46;65.02;101818.19;5042800;28;20409;-78
2022/02/28 07:19:29;;;;;;;16.48;10.90;;;;;;;1.56;64.94;101819.81;5041720;28;20904;-78
2022/02/28 07:21:56;;;;;;;16.08;11.00;;;;;;;1.68;64.46;101820.38;5043335;28;20445;-80
2022/02/28 07:24:22;;;;;;;19.10;12.25;;;;;;;1.84;64.77;101822.38;5050706;28;20401;-81
2022/02/28 07:26:48;;;;;;;15.13;10.85;;;;;;;1.99;63.70;101829.69;5050593;28;20412;-81
2022/02/28 07:29:13;;;;;;;13.20;10.37;;;;;;;2.14;62.99;101819.22;5047826;28;20761;-83
2022/02/28 07:31:39;;;;;;;14.37;10.60;;;;;;;2.19;62.80;101806.25;5045895;28;20896;-82
2022/02/28 07:34:04;;;;;;;16.40;10.47;;;;;;;2.14;62.12;101819.22;5043282;28;20903;-80
2022/02/28 07:36:30;;;;;;;12.63;10.33;;;;;;;2.14;62.38;101815.75;5048619;28;20418;-80
2022/02/28 07:38:55;;;;;;;16.52;10.95;;;;;;;2.24;61.88;101816.47;5051940;28;20393;-80
2022/02/28 07:41:20;;;;;;;13.60;10.95;;;;;;;2.37;61.61;101809.69;5051650;28;20408;-77
2022/02/28 07:43:46;;;;;;;12.60;10.33;;;;;;;2.47;60.80;101815.75;5050382;28;20420;-77
2022/02/28 07:46:11;;;;;;;20.13;11.73;;;;;;;2.64;60.69;101811.31;5051617;28;20390;-78
2022/02/28 07:48:36;;;;;;;16.73;11.43;;;;;;;2.79;60.22;101814.25;5054101;28;20461;-78
2022/02/28 07:51:01;;;;;;;14.93;10.87;;;;;;;2.82;59.66;101819.28;5052202;28;20504;-82
2022/02/28 07:53:27;;;;;;;14.20;10.27;;;;;;;2.85;59.88;101818.94;5047815;28;20931;-81
2022/02/28 07:55:52;;;;;;;15.90;10.87;;;;;;;2.88;59.80;101832.00;5047413;28;20472;-81
2022/02/28 07:58:18;;;;;;;14.07;10.57;;;;;;;2.95;59.96;101830.38;5052065;28;20409;-81
2022/02/28 08:00:43;;;;;;;19.07;11.37;;;;;;;2.96;59.81;101834.72;5052496;28;20421;-81
2022/02/28 08:03:08;;;;;;;15.00;11.50;;;;;;;3.04;59.04;101832.06;5051993;28;20415;-85
2022/02/28 08:05:33;;;;;;;15.07;10.23;;;;;;;3.01;59.18;101840.44;5046350;28;20841;-81
2022/02/28 08:07:59;;;;;;;15.90;11.20;;;;;;;3.03;58.60;101839.25;5053413;28;20433;-81
2022/02/28 08:10:24;;;;;;;13.03;10.80;;;;;;;3.20;58.99;101850.03;5047721;28;20402;-81
2022/02/28 08:12:50;;;;;;;14.37;10.30;;;;;;;3.47;57.86;101847.91;5042337;28;20885;-84
2022/02/28 08:15:15;;;;;;;15.30;11.40;;;;;;;3.74;57.84;101840.56;5047368;28;20467;-82
2022/02/28 08:17:41;;;;;;;17.73;12.20;;;;;;;3.82;57.07;101845.97;5047726;28;20820;-79
2022/02/28 08:20:08;;;;;;;15.70;11.30;;;;;;;3.85;57.46;101843.78;5049597;28;20421;-79
2022/02/28 08:22:33;;;;;;;15.18;10.65;;;;;;;3.90;57.22;101845.94;5052353;28;20417;-77
2022/02/28 08:24:59;;;;;;;14.17;10.97;;;;;;;3.88;56.53;101847.97;5051676;28;20841;-77
2022/02/28 08:27:26;;;;;;;14.75;10.32;;;;;;;3.94;56.71;101850.81;5047652;28;20876;-77
2022/02/28 08:29:52;;;;;;;16.07;10.77;;;;;;;3.99;56.47;101848.44;5045744;28;20445;-78
2022/02/28 08:32:17;;;;;;;13.80;10.63;;;;;;;4.13;57.01;101847.78;5037810;28;20471;-77
2022/02/28 08:34:42;;;;;;;19.57;10.83;;;;;;;4.43;55.44;101838.19;5040401;28;20437;-78
2022/02/28 08:37:08;;;;;;;17.63;10.87;;;;;;;4.48;55.75;101832.31;5046734;28;20492;-80
2022/02/28 08:39:33;;;;;;;14.52;9.98;;;;;;;4.55;55.33;101844.00;5052939;28;20452;-78
2022/02/28 08:41:59;;;;;;;14.00;10.13;;;;;;;4.58;54.58;101839.13;5053082;28;20892;-78
2022/02/28 08:44:24;;;;;;;12.30;10.00;;;;;;;4.53;54.67;101840.66;5052636;28;20484;-78
2022/02/28 08:46:49;;;;;;;14.90;11.18;;;;;;;4.61;54.75;101833.41;5053054;28;20396;-78
2022/02/28 08:49:17;;;;;;;12.30;10.30;;;;;;;4.72;54.65;101851.00;5051782;28;20389;-78
2022/02/28 08:51:44;;;;;;;16.38;10.55;;;;;;;4.89;53.48;101847.25;5053030;28;20432;-78
2022/02/28 08:54:09;;;;;;;12.17;9.97;;;;;;;5.22;53.86;101847.94;5052878;28;20891;-78
2022/02/28 08:56:35;;;;;;;11.97;9.63;;;;;;;5.38;52.54;101845.16;5053071;28;20406;-78
2022/02/28 08:59:00;;;;;;;18.23;10.03;;;;;;;5.34;52.58;101843.84;5052953;28;20454;-79
2022/02/28 09:01:25;;;;;;;13.63;10.30;;;;;;;5.50;52.33;101841.03;5051261;28;20394;-78
2022/02/28 09:03:50;;;;;;;13.00;9.67;;;;;;;5.87;51.22;101847.53;5052754;28;20413;-78
2022/02/28 09:06:16;;;;;;;12.43;9.83;;;;;;;6.12;50.51;101835.56;5052549;28;20426;-78
2022/02/28 09:08:41;;;;;;;14.07;11.10;;;;;;;6.30;49.84;101836.03;5052732;28;20420;-78
2022/02/28 09:11:06;;;;;;;12.30;9.97;;;;;;;7.39;48.80;101836.06;5052711;28;20417;-77
2022/02/28 09:13:33;;;;;;;13.10;9.57;;;;;;;9.23;44.20;101838.28;5052322;28;20394;-78
2022/02/28 09:15:59;;;;;;;12.18;9.52;;;;;;;9.87;41.46;101838.66;5052356;28;20409;-79
2022/02/28 09:18:24;;;;;;;15.20;9.77;;;;;;;9.09;43.19;101841.16;5052319;28;20877;-79
2022/02/28 09:20:49;;;;;;;13.47;10.40;;;;;;;8.32;44.15;101842.16;5067749;28;20402;-79
2022/02/28 09:23:15;;;;;;;12.70;9.80;;;;;;;8.43;44.24;101838.06;5052275;28;20512;-78
2022/02/28 09:25:40;;;;;;;11.77;9.03;;;;;;;8.69;43.50;101834.72;5052287;28;20409;-78
2022/02/28 09:28:05;;;;;;;11.13;9.57;;;;;;;8.74;43.59;101846.59;5067714;28;20405;-79
2022/02/28 09:30:31;;;;;;;12.52;9.35;;;;;;;8.73;44.26;101844.91;5051882;28;20402;-78
2022/02/28 09:32:56;;;;;;;13.30;9.33;;;;;;;9.59;42.70;101835.28;5052158;28;20406;-78
2022/02/28 09:35:24;;;;;;;13.20;9.95;;;;;;;9.75;41.46;101836.75;5052025;28;20446;-78
2022/02/28 09:37:49;;;;;;;13.95;8.52;;;;;;;11.53;38.20;101834.53;5052246;28;20408;-78
2022/02/28 09:40:15;;;;;;;11.60;8.20;;;;;;;12.67;35.89;101835.94;5052170;28;20402;-79
2022/02/28 09:42:41;;;;;;;9.83;8.40;;;;;;;12.42;36.10;101838.69;5051853;28;20515;-79
2022/02/28 09:45:07;;;;;;;10.23;7.82;;;;;;;12.71;35.09;101833.59;5051323;28;20393;-79
2022/02/28 09:47:33;;;;;;;11.10;8.32;;;;;;;12.69;36.01;101836.53;5051711;28;20455;-79
2022/02/28 09:49:58;;;;;;;11.43;8.37;;;;;;;13.00;35.50;101830.13;5052022;28;20398;-79
2022/02/28 09:52:24;;;;;;;11.57;8.20;;;;;;;13.90;33.09;101825.53;5051875;28;20405;-79
2022/02/28 09:54:50;;;;;;;9.82;7.80;;;;;;;14.15;31.04;101825.38;5051855;28;20401;-79
2022/02/28 09:57:18;;;;;;;12.02;7.85;;;;;;;13.63;32.10;101819.69;5051808;28;20416;-79
2022/02/28 09:59:44;;;;;;;9.25;7.22;;;;;;;12.94;33.34;101826.41;5051893;28;20819;-78
2022/02/28 10:02:09;;;;;;;10.30;8.23;;;;;;;13.05;34.53;101830.25;5051593;28;20413;-79
2022/02/28 10:04:35;;;;;;;8.67;7.63;;;;;;;14.18;32.46;101820.28;5051568;28;20686;-79
2022/02/28 10:07:25;;;;;;;12.02;8.55;;;;;;;16.12;29.63;101824.03;5051713;28;20467;-78
2022/02/28 10:10:06;;;;;;;9.10;8.05;;;;;;;18.26;26.34;101817.09;5051314;28;20409;-79
2022/02/28 10:12:32;;;;;;;9.48;6.45;;;;;;;19.47;24.04;101826.03;5051397;28;20401;-79
2022/02/28 10:15:09;;;;;;;7.07;6.35;;;;;;;20.91;21.88;101830.13;5051206;28;20952;-79
2022/02/28 10:17:51;;;;;;;7.72;6.97;;;;;;;22.38;21.22;101819.06;5066905;28;20425;-80
2022/02/28 10:20:22;;;;;;;7.65;6.95;;;;;;;23.18;19.40;101813.75;5050038;28;20405;-80
2022/02/28 10:22:57;;;;;;;6.93;6.20;;;;;;;23.52;18.87;101813.59;5066598;28;20420;-80
2022/02/28 10:25:26;;;;;;;6.97;6.13;;;;;;;23.76;18.58;101817.94;5051431;28;20401;-80
2022/02/28 10:28:17;;;;;;;7.10;6.00;;;;;;;23.96;18.57;101822.31;5051389;28;20409;-79
2022/02/28 10:30:52;;;;;;;8.00;6.55;;;;;;;23.30;19.22;101821.63;5049345;28;20494;-79
2022/02/28 10:33:18;;;;;;;6.73;6.13;;;;;;;22.81;19.35;101813.66;5051395;28;20398;-79
2022/02/28 10:36:00;;;;;;;8.38;6.90;;;;;;;23.62;18.84;101821.75;5051322;28;20393;-78
2022/02/28 10:38:27;;;;;;;7.47;6.38;;;;;;;24.49;17.06;101822.81;5046668;28;20495;-79
2022/02/28 10:40:53;;;;;;;7.05;6.35;;;;;;;24.82;17.48;101819.97;5049787;28;20393;-78
2022/02/28 10:43:26;;;;;;;7.32;6.35;;;;;;;25.20;16.76;101821.44;5051313;28;20416;-78
2022/02/28 10:45:53;;;;;;;6.82;6.20;;;;;;;24.57;17.40;101816.56;5051031;28;20489;-78
2022/02/28 10:48:20;;;;;;;7.70;6.85;;;;;;;24.74;17.40;101816.78;5051304;28;20401;-78
2022/02/28 10:50:45;;;;;;;8.20;6.85;;;;;;;24.20;17.17;101823.03;5051083;28;20772;-78
2022/02/28 10:53:17;;;;;;;8.83;7.13;;;;;;;22.29;18.40;101815.28;5051220;28;20762;-78
2022/02/28 10:55:44;;;;;;;7.28;6.45;;;;;;;18.04;23.10;101810.91;5051144;28;20405;-77
2022/02/28 10:58:11;;;;;;;8.02;6.60;;;;;;;14.81;27.46;101812.22;5054578;28;20903;-78
2022/02/28 11:00:58;;;;;;;8.50;6.85;;;;;;;13.09;30.38;101819.78;5087599;28;20884;-77
2022/02/28 11:03:42;;;;;;;8.65;7.85;;;;;;;11.71;33.42;101813.78;5066049;28;20487;-77
2022/02/28 11:06:08;;;;;;;8.38;7.22;;;;;;;10.94;35.06;101812.06;5054414;28;20405;-77
2022/02/28 11:08:41;;;;;;;10.77;7.55;;;;;;;10.69;35.33;101810.28;5054990;28;20405;-77
2022/02/28 11:11:09;;;;;;;9.65;7.25;;;;;;;10.55;36.15;101809.47;5054745;28;20480;-79
2022/02/28 11:13:35;;;;;;;10.85;7.68;;;;;;;10.21;37.07;101804.31;5045457;28;20403;-78
2022/02/28 11:16:01;;;;;;;9.87;7.73;;;;;;;10.03;37.68;101802.22;5053375;28;20417;-78
2022/02/28 11:18:26;;;;;;;11.50;6.87;;;;;;;9.87;38.27;101802.63;5054746;28;20402;-78
2022/02/28 11:20:55;;;;;;;9.93;7.60;;;;;;;9.79;38.67;101792.00;5053195;28;20394;-78